sensor_id;sensor_type;location;lat;lon;timestamp;P1;durP1;ratioP1;P2;durP2;ratioP2
21731;SDS011;11028;51.156;17.130;2022-09-24T00:05:35;16.35;;;8.30;;
21731;SDS011;11028;51.156;17.130;2022-09-24T00:12:54;13.35;;;7.35;;
21731;SDS011;11028;51.156;17.130;2022-09-24T00:20:12;16.58;;;8.55;;
21731;SDS011;11028;51.156;17.130;2022-09-24T00:27:29;18.60;;;7.80;;
21731;SDS011;11028;51.156;17.130;2022-09-24T00:34:46;15.07;;;8.65;;
21731;SDS011;11028;51.156;17.130;2022-09-24T00:42:08;13.63;;;8.30;;
21731;SDS011;11028;51.156;17.130;2022-09-24T00:49:25;21.35;;;9.32;;
21731;SDS011;11028;51.156;17.130;2022-09-24T00:56:42;14.85;;;9.30;;
21731;SDS011;11028;51.156;17.130;2022-09-24T01:04:01;15.68;;;8.38;;
21731;SDS011;11028;51.156;17.130;2022-09-24T01:11:22;15.68;;;9.25;;
21731;SDS011;11028;51.156;17.130;2022-09-24T01:18:48;16.38;;;10.10;;
21731;SDS011;11028;51.156;17.130;2022-09-24T01:26:13;19.98;;;9.20;;
21731;SDS011;11028;51.156;17.130;2022-09-24T01:33:37;18.45;;;10.23;;
21731;SDS011;11028;51.156;17.130;2022-09-24T01:40:54;17.27;;;9.48;;
21731;SDS011;11028;51.156;17.130;2022-09-24T01:48:13;19.65;;;10.07;;
21731;SDS011;11028;51.156;17.130;2022-09-24T01:55:32;19.48;;;10.05;;
21731;SDS011;11028;51.156;17.130;2022-09-24T02:02:53;18.05;;;10.63;;
21731;SDS011;11028;51.156;17.130;2022-09-24T02:10:13;17.73;;;10.45;;
21731;SDS011;11028;51.156;17.130;2022-09-24T02:17:33;20.40;;;10.65;;
21731;SDS011;11028;51.156;17.130;2022-09-24T02:24:51;19.42;;;11.45;;
21731;SDS011;11028;51.156;17.130;2022-09-24T02:32:10;20.42;;;11.95;;
21731;SDS011;11028;51.156;17.130;2022-09-24T02:39:30;19.67;;;11.80;;
21731;SDS011;11028;51.156;17.130;2022-09-24T02:46:48;18.73;;;12.80;;
21731;SDS011;11028;51.156;17.130;2022-09-24T02:54:05;19.67;;;12.57;;
21731;SDS011;11028;51.156;17.130;2022-09-24T03:01:23;20.83;;;13.05;;
21731;SDS011;11028;51.156;17.130;2022-09-24T03:08:40;23.20;;;13.07;;
21731;SDS011;11028;51.156;17.130;2022-09-24T03:15:58;21.75;;;11.95;;
21731;SDS011;11028;51.156;17.130;2022-09-24T03:23:16;20.60;;;12.77;;
21731;SDS011;11028;51.156;17.130;2022-09-24T03:30:33;30.40;;;13.55;;
21731;SDS011;11028;51.156;17.130;2022-09-24T03:38:07;23.25;;;13.00;;
21731;SDS011;11028;51.156;17.130;2022-09-24T03:45:26;22.27;;;13.75;;
21731;SDS011;11028;51.156;17.130;2022-09-24T03:52:42;22.98;;;14.25;;
21731;SDS011;11028;51.156;17.130;2022-09-24T03:59:59;23.23;;;14.60;;
21731;SDS011;11028;51.156;17.130;2022-09-24T04:07:18;22.10;;;13.93;;
21731;SDS011;11028;51.156;17.130;2022-09-24T04:14:35;22.25;;;13.55;;
21731;SDS011;11028;51.156;17.130;2022-09-24T04:21:52;20.42;;;13.80;;
21731;SDS011;11028;51.156;17.130;2022-09-24T04:29:10;23.42;;;14.10;;
21731;SDS011;11028;51.156;17.130;2022-09-24T04:36:27;25.10;;;14.73;;
21731;SDS011;11028;51.156;17.130;2022-09-24T04:43:44;23.70;;;15.35;;
21731;SDS011;11028;51.156;17.130;2022-09-24T04:51:03;23.85;;;15.07;;
21731;SDS011;11028;51.156;17.130;2022-09-24T04:58:20;25.67;;;14.93;;
21731;SDS011;11028;51.156;17.130;2022-09-24T05:05:37;27.60;;;15.63;;
21731;SDS011;11028;51.156;17.130;2022-09-24T05:12:55;24.73;;;15.70;;
21731;SDS011;11028;51.156;17.130;2022-09-24T05:20:12;25.45;;;15.65;;
21731;SDS011;11028;51.156;17.130;2022-09-24T05:27:31;30.00;;;15.45;;
21731;SDS011;11028;51.156;17.130;2022-09-24T05:34:50;25.10;;;15.15;;
21731;SDS011;11028;51.156;17.130;2022-09-24T05:42:08;26.50;;;15.85;;
21731;SDS011;11028;51.156;17.130;2022-09-24T05:49:28;27.33;;;15.93;;
21731;SDS011;11028;51.156;17.130;2022-09-24T05:56:46;33.58;;;20.05;;
21731;SDS011;11028;51.156;17.130;2022-09-24T06:04:03;23.92;;;15.23;;
21731;SDS011;11028;51.156;17.130;2022-09-24T06:11:20;25.63;;;15.23;;
21731;SDS011;11028;51.156;17.130;2022-09-24T06:18:39;23.20;;;14.23;;
21731;SDS011;11028;51.156;17.130;2022-09-24T06:25:57;26.63;;;14.75;;
21731;SDS011;11028;51.156;17.130;2022-09-24T06:33:14;27.88;;;15.00;;
21731;SDS011;11028;51.156;17.130;2022-09-24T06:40:32;25.17;;;16.95;;
21731;SDS011;11028;51.156;17.130;2022-09-24T06:47:53;32.63;;;18.27;;
21731;SDS011;11028;51.156;17.130;2022-09-24T06:55:10;25.95;;;15.40;;
21731;SDS011;11028;51.156;17.130;2022-09-24T07:02:29;24.80;;;15.20;;
21731;SDS011;11028;51.156;17.130;2022-09-24T07:09:46;20.70;;;13.07;;
21731;SDS011;11028;51.156;17.130;2022-09-24T07:17:03;19.90;;;12.02;;
21731;SDS011;11028;51.156;17.130;2022-09-24T07:24:21;21.65;;;12.50;;
21731;SDS011;11028;51.156;17.130;2022-09-24T07:31:38;20.40;;;12.35;;
21731;SDS011;11028;51.156;17.130;2022-09-24T07:38:56;21.10;;;12.55;;
21731;SDS011;11028;51.156;17.130;2022-09-24T07:46:14;23.83;;;13.73;;
21731;SDS011;11028;51.156;17.130;2022-09-24T07:53:31;34.72;;;19.17;;
21731;SDS011;11028;51.156;17.130;2022-09-24T08:00:48;23.15;;;13.70;;
21731;SDS011;11028;51.156;17.130;2022-09-24T08:08:06;20.77;;;11.82;;
21731;SDS011;11028;51.156;17.130;2022-09-24T08:15:23;15.88;;;9.18;;
21731;SDS011;11028;51.156;17.130;2022-09-24T08:22:40;10.30;;;7.10;;
21731;SDS011;11028;51.156;17.130;2022-09-24T08:29:58;16.50;;;7.22;;
21731;SDS011;11028;51.156;17.130;2022-09-24T08:37:15;10.18;;;6.57;;
21731;SDS011;11028;51.156;17.130;2022-09-24T08:44:35;11.45;;;6.80;;
21731;SDS011;11028;51.156;17.130;2022-09-24T08:52:16;9.18;;;5.68;;
21731;SDS011;11028;51.156;17.130;2022-09-24T08:59:38;9.52;;;5.93;;
21731;SDS011;11028;51.156;17.130;2022-09-24T09:06:59;10.30;;;4.53;;
21731;SDS011;11028;51.156;17.130;2022-09-24T09:14:24;8.98;;;4.68;;
21731;SDS011;11028;51.156;17.130;2022-09-24T09:21:47;9.32;;;4.55;;
21731;SDS011;11028;51.156;17.130;2022-09-24T09:29:07;10.05;;;4.63;;
21731;SDS011;11028;51.156;17.130;2022-09-24T09:36:31;6.72;;;4.68;;
21731;SDS011;11028;51.156;17.130;2022-09-24T09:43:54;6.88;;;4.35;;
21731;SDS011;11028;51.156;17.130;2022-09-24T09:51:16;13.15;;;5.05;;
21731;SDS011;11028;51.156;17.130;2022-09-24T09:58:39;9.27;;;4.10;;
21731;SDS011;11028;51.156;17.130;2022-09-24T10:05:59;5.82;;;3.50;;
21731;SDS011;11028;51.156;17.130;2022-09-24T10:13:17;6.13;;;4.38;;
21731;SDS011;11028;51.156;17.130;2022-09-24T10:20:35;11.55;;;3.80;;
21731;SDS011;11028;51.156;17.130;2022-09-24T10:27:53;6.95;;;4.10;;
21731;SDS011;11028;51.156;17.130;2022-09-24T10:35:33;9.93;;;4.32;;
21731;SDS011;11028;51.156;17.130;2022-09-24T10:42:58;7.70;;;4.20;;
21731;SDS011;11028;51.156;17.130;2022-09-24T10:50:22;4.88;;;3.50;;
21731;SDS011;11028;51.156;17.130;2022-09-24T10:57:44;6.32;;;3.47;;
21731;SDS011;11028;51.156;17.130;2022-09-24T11:05:10;5.65;;;3.58;;
21731;SDS011;11028;51.156;17.130;2022-09-24T11:12:29;5.35;;;3.40;;
21731;SDS011;11028;51.156;17.130;2022-09-24T11:19:55;5.80;;;3.57;;
21731;SDS011;11028;51.156;17.130;2022-09-24T11:27:30;11.50;;;4.07;;
21731;SDS011;11028;51.156;17.130;2022-09-24T11:35:03;4.47;;;3.28;;
21731;SDS011;11028;51.156;17.130;2022-09-24T11:42:33;3.90;;;3.10;;
21731;SDS011;11028;51.156;17.130;2022-09-24T11:49:57;5.63;;;3.20;;
21731;SDS011;11028;51.156;17.130;2022-09-24T11:57:27;3.85;;;3.17;;
21731;SDS011;11028;51.156;17.130;2022-09-24T12:04:54;5.35;;;3.10;;
21731;SDS011;11028;51.156;17.130;2022-09-24T12:12:15;6.22;;;3.67;;
21731;SDS011;11028;51.156;17.130;2022-09-24T12:19:35;5.95;;;2.75;;
21731;SDS011;11028;51.156;17.130;2022-09-24T12:26:59;3.17;;;2.78;;
21731;SDS011;11028;51.156;17.130;2022-09-24T12:34:18;4.32;;;2.70;;
21731;SDS011;11028;51.156;17.130;2022-09-24T12:41:39;5.93;;;3.03;;
21731;SDS011;11028;51.156;17.130;2022-09-24T12:48:59;7.07;;;2.97;;
21731;SDS011;11028;51.156;17.130;2022-09-24T12:56:21;2.90;;;2.58;;
21731;SDS011;11028;51.156;17.130;2022-09-24T13:03:41;3.97;;;2.70;;
21731;SDS011;11028;51.156;17.130;2022-09-24T13:11:00;4.85;;;2.60;;
21731;SDS011;11028;51.156;17.130;2022-09-24T13:18:20;5.18;;;2.83;;
21731;SDS011;11028;51.156;17.130;2022-09-24T13:25:39;5.72;;;2.75;;
21731;SDS011;11028;51.156;17.130;2022-09-24T13:33:14;4.00;;;2.83;;
21731;SDS011;11028;51.156;17.130;2022-09-24T13:40:36;3.08;;;2.63;;
21731;SDS011;11028;51.156;17.130;2022-09-24T13:47:55;4.68;;;3.20;;
21731;SDS011;11028;51.156;17.130;2022-09-24T13:55:17;4.40;;;2.80;;
21731;SDS011;11028;51.156;17.130;2022-09-24T14:02:37;3.63;;;2.58;;
21731;SDS011;11028;51.156;17.130;2022-09-24T14:10:03;3.95;;;2.70;;
21731;SDS011;11028;51.156;17.130;2022-09-24T14:17:23;3.05;;;2.50;;
21731;SDS011;11028;51.156;17.130;2022-09-24T14:24:41;4.93;;;2.75;;
21731;SDS011;11028;51.156;17.130;2022-09-24T14:32:01;6.32;;;2.90;;
21731;SDS011;11028;51.156;17.130;2022-09-24T14:39:20;2.85;;;2.60;;
21731;SDS011;11028;51.156;17.130;2022-09-24T14:46:43;3.60;;;2.35;;
21731;SDS011;11028;51.156;17.130;2022-09-24T14:54:04;3.72;;;2.63;;
21731;SDS011;11028;51.156;17.130;2022-09-24T15:01:36;5.15;;;3.03;;
21731;SDS011;11028;51.156;17.130;2022-09-24T15:08:54;3.13;;;2.20;;
21731;SDS011;11028;51.156;17.130;2022-09-24T15:16:17;5.72;;;2.25;;
21731;SDS011;11028;51.156;17.130;2022-09-24T15:23:37;3.33;;;2.50;;
21731;SDS011;11028;51.156;17.130;2022-09-24T15:30:54;4.80;;;2.38;;
21731;SDS011;11028;51.156;17.130;2022-09-24T15:38:12;6.45;;;4.15;;
21731;SDS011;11028;51.156;17.130;2022-09-24T15:45:32;5.03;;;3.20;;
21731;SDS011;11028;51.156;17.130;2022-09-24T15:52:49;6.70;;;2.60;;
21731;SDS011;11028;51.156;17.130;2022-09-24T16:00:11;3.67;;;2.40;;
21731;SDS011;11028;51.156;17.130;2022-09-24T16:07:30;7.30;;;2.88;;
21731;SDS011;11028;51.156;17.130;2022-09-24T16:14:47;6.75;;;3.00;;
21731;SDS011;11028;51.156;17.130;2022-09-24T16:22:05;7.10;;;3.58;;
21731;SDS011;11028;51.156;17.130;2022-09-24T16:29:23;7.45;;;3.63;;
21731;SDS011;11028;51.156;17.130;2022-09-24T16:36:40;5.85;;;3.42;;
21731;SDS011;11028;51.156;17.130;2022-09-24T16:43:59;7.88;;;3.60;;
21731;SDS011;11028;51.156;17.130;2022-09-24T16:51:18;7.93;;;4.50;;
21731;SDS011;11028;51.156;17.130;2022-09-24T16:58:35;10.68;;;4.60;;
21731;SDS011;11028;51.156;17.130;2022-09-24T17:05:52;6.57;;;4.70;;
21731;SDS011;11028;51.156;17.130;2022-09-24T17:13:10;10.10;;;5.68;;
21731;SDS011;11028;51.156;17.130;2022-09-24T17:20:27;9.38;;;6.32;;
21731;SDS011;11028;51.156;17.130;2022-09-24T17:27:45;9.18;;;5.95;;
21731;SDS011;11028;51.156;17.130;2022-09-24T17:35:04;8.43;;;6.47;;
21731;SDS011;11028;51.156;17.130;2022-09-24T17:42:24;15.73;;;8.27;;
21731;SDS011;11028;51.156;17.130;2022-09-24T17:49:44;15.15;;;8.43;;
21731;SDS011;11028;51.156;17.130;2022-09-24T17:57:02;17.05;;;9.77;;
21731;SDS011;11028;51.156;17.130;2022-09-24T18:04:20;30.75;;;14.82;;
21731;SDS011;11028;51.156;17.130;2022-09-24T18:11:41;17.80;;;11.20;;
21731;SDS011;11028;51.156;17.130;2022-09-24T18:19:01;24.65;;;15.00;;
21731;SDS011;11028;51.156;17.130;2022-09-24T18:26:19;22.38;;;13.32;;
21731;SDS011;11028;51.156;17.130;2022-09-24T18:33:37;29.65;;;15.48;;
21731;SDS011;11028;51.156;17.130;2022-09-24T18:40:56;27.65;;;15.85;;
21731;SDS011;11028;51.156;17.130;2022-09-24T18:48:13;30.05;;;17.27;;
21731;SDS011;11028;51.156;17.130;2022-09-24T18:55:30;29.70;;;15.73;;
21731;SDS011;11028;51.156;17.130;2022-09-24T19:02:49;24.75;;;13.75;;
21731;SDS011;11028;51.156;17.130;2022-09-24T19:10:06;27.15;;;15.60;;
21731;SDS011;11028;51.156;17.130;2022-09-24T19:17:24;29.20;;;17.75;;
21731;SDS011;11028;51.156;17.130;2022-09-24T19:24:43;32.25;;;20.08;;
21731;SDS011;11028;51.156;17.130;2022-09-24T19:32:00;48.08;;;25.63;;
21731;SDS011;11028;51.156;17.130;2022-09-24T19:39:17;34.75;;;19.73;;
21731;SDS011;11028;51.156;17.130;2022-09-24T19:46:35;108.88;;;55.55;;
21731;SDS011;11028;51.156;17.130;2022-09-24T19:53:53;41.10;;;21.67;;
21731;SDS011;11028;51.156;17.130;2022-09-24T20:01:11;47.30;;;22.88;;
21731;SDS011;11028;51.156;17.130;2022-09-24T20:08:30;43.05;;;24.23;;
21731;SDS011;11028;51.156;17.130;2022-09-24T20:15:48;43.92;;;25.35;;
21731;SDS011;11028;51.156;17.130;2022-09-24T20:23:12;51.35;;;27.85;;
21731;SDS011;11028;51.156;17.130;2022-09-24T20:30:31;57.03;;;30.77;;
21731;SDS011;11028;51.156;17.130;2022-09-24T20:37:51;55.55;;;30.88;;
21731;SDS011;11028;51.156;17.130;2022-09-24T20:45:09;57.22;;;31.73;;
21731;SDS011;11028;51.156;17.130;2022-09-24T20:52:27;58.67;;;30.80;;
21731;SDS011;11028;51.156;17.130;2022-09-24T20:59:44;62.53;;;32.30;;
21731;SDS011;11028;51.156;17.130;2022-09-24T21:07:03;58.03;;;32.83;;
21731;SDS011;11028;51.156;17.130;2022-09-24T21:14:21;67.50;;;32.95;;
21731;SDS011;11028;51.156;17.130;2022-09-24T21:21:38;58.03;;;32.88;;
21731;SDS011;11028;51.156;17.130;2022-09-24T21:28:57;57.55;;;33.78;;
21731;SDS011;11028;51.156;17.130;2022-09-24T21:36:15;62.45;;;34.80;;
21731;SDS011;11028;51.156;17.130;2022-09-24T21:43:34;58.47;;;35.65;;
21731;SDS011;11028;51.156;17.130;2022-09-24T21:50:51;60.97;;;35.47;;
21731;SDS011;11028;51.156;17.130;2022-09-24T21:58:09;66.07;;;35.97;;
21731;SDS011;11028;51.156;17.130;2022-09-24T22:05:26;60.20;;;35.22;;
21731;SDS011;11028;51.156;17.130;2022-09-24T22:12:44;55.67;;;34.13;;
21731;SDS011;11028;51.156;17.130;2022-09-24T22:20:02;58.67;;;34.25;;
21731;SDS011;11028;51.156;17.130;2022-09-24T22:27:20;62.45;;;33.80;;
21731;SDS011;11028;51.156;17.130;2022-09-24T22:34:36;64.35;;;36.88;;
21731;SDS011;11028;51.156;17.130;2022-09-24T22:42:12;59.42;;;35.30;;
21731;SDS011;11028;51.156;17.130;2022-09-24T22:49:32;63.30;;;33.78;;
21731;SDS011;11028;51.156;17.130;2022-09-24T22:56:51;63.30;;;34.97;;
21731;SDS011;11028;51.156;17.130;2022-09-24T23:04:10;59.70;;;33.88;;
21731;SDS011;11028;51.156;17.130;2022-09-24T23:11:28;48.97;;;30.15;;
21731;SDS011;11028;51.156;17.130;2022-09-24T23:18:47;52.90;;;30.25;;
21731;SDS011;11028;51.156;17.130;2022-09-24T23:26:08;48.85;;;29.85;;
21731;SDS011;11028;51.156;17.130;2022-09-24T23:33:28;49.33;;;29.30;;
21731;SDS011;11028;51.156;17.130;2022-09-24T23:40:46;56.30;;;30.80;;
21731;SDS011;11028;51.156;17.130;2022-09-24T23:48:06;52.10;;;30.85;;
21731;SDS011;11028;51.156;17.130;2022-09-24T23:55:23;50.97;;;30.65;;
